createdAt,value
2022-12-26T00:00:02.755Z,977.73
2022-12-26T00:01:02.741Z,977.60
2022-12-26T00:02:02.728Z,977.71
2022-12-26T00:03:02.844Z,977.70
2022-12-26T00:04:02.823Z,977.68
2022-12-26T00:05:02.729Z,977.69
2022-12-26T00:06:02.699Z,977.68
2022-12-26T00:07:02.707Z,977.70
2022-12-26T00:08:02.650Z,977.70
2022-12-26T00:09:02.649Z,977.67
2022-12-26T00:10:02.617Z,977.73
2022-12-26T00:11:02.606Z,977.64
2022-12-26T00:12:02.608Z,977.69
2022-12-26T00:13:37.232Z,977.67
2022-12-26T00:14:03.587Z,977.67
2022-12-26T00:15:02.546Z,977.69
2022-12-26T00:16:02.571Z,977.68
2022-12-26T00:17:02.524Z,977.72
2022-12-26T00:18:02.509Z,977.67
2022-12-26T00:19:02.498Z,977.70
2022-12-26T00:20:02.487Z,977.69
2022-12-26T00:21:02.464Z,977.76
2022-12-26T00:22:02.478Z,977.75
2022-12-26T00:23:02.457Z,977.67
2022-12-26T00:24:02.435Z,977.62
2022-12-26T00:25:02.418Z,977.66
2022-12-26T00:26:02.401Z,977.69
2022-12-26T00:27:02.411Z,977.74
2022-12-26T00:28:02.381Z,977.71
2022-12-26T00:29:02.373Z,977.69
2022-12-26T00:30:02.391Z,977.76
2022-12-26T00:31:02.411Z,977.70
2022-12-26T00:32:02.400Z,977.72
2022-12-26T00:33:02.319Z,977.75
2022-12-26T00:34:02.296Z,977.75
2022-12-26T00:35:02.280Z,977.76
2022-12-26T00:36:02.274Z,977.80
2022-12-26T00:37:02.253Z,977.78
2022-12-26T00:38:02.397Z,977.86
2022-12-26T00:39:02.228Z,977.77
2022-12-26T00:40:02.217Z,977.77
2022-12-26T00:41:02.209Z,977.76
2022-12-26T00:42:02.190Z,977.77
2022-12-26T00:43:02.179Z,977.73
2022-12-26T00:44:02.165Z,977.69
2022-12-26T00:45:02.142Z,977.71
2022-12-26T00:46:02.129Z,977.66
2022-12-26T00:47:02.371Z,977.65
2022-12-26T00:48:02.108Z,977.60
2022-12-26T00:49:02.087Z,977.65
2022-12-26T00:50:11.259Z,977.56
2022-12-26T00:51:03.091Z,977.58
2022-12-26T00:52:02.045Z,977.55
2022-12-26T00:53:02.036Z,977.54
2022-12-26T00:54:02.054Z,977.59
2022-12-26T00:55:02.008Z,977.67
2022-12-26T00:56:01.995Z,977.69
2022-12-26T00:57:01.977Z,977.73
2022-12-26T00:58:01.973Z,977.66
2022-12-26T00:59:01.951Z,977.70
2022-12-26T01:00:01.944Z,977.60
2022-12-26T01:01:02.020Z,977.55
2022-12-26T01:02:02.167Z,977.52
2022-12-26T01:03:02.061Z,977.48
2022-12-26T01:04:01.894Z,977.53
2022-12-26T01:05:01.884Z,977.45
2022-12-26T01:06:01.877Z,977.45
2022-12-26T01:07:01.840Z,977.48
2022-12-26T01:08:22.616Z,977.46
2022-12-26T01:09:02.835Z,977.47
2022-12-26T01:10:01.816Z,977.54
2022-12-26T01:11:01.809Z,977.53
2022-12-26T01:12:01.792Z,977.55
2022-12-26T01:13:01.766Z,977.47
2022-12-26T01:14:01.759Z,977.50
2022-12-26T01:15:01.738Z,977.55
2022-12-26T01:16:01.845Z,977.63
2022-12-26T01:17:01.791Z,977.59
2022-12-26T01:18:01.702Z,977.53
2022-12-26T01:19:01.707Z,977.51
2022-12-26T01:20:01.692Z,977.52
2022-12-26T01:21:01.643Z,977.48
2022-12-26T01:22:01.643Z,977.58
2022-12-26T01:23:01.620Z,977.61
2022-12-26T01:24:01.610Z,977.63
2022-12-26T01:25:01.594Z,977.68
2022-12-26T01:26:17.793Z,977.72
2022-12-26T01:27:02.606Z,977.67
2022-12-26T01:28:01.551Z,977.66
2022-12-26T01:29:01.541Z,977.73
2022-12-26T01:30:01.576Z,977.71
2022-12-26T01:31:01.516Z,977.61
2022-12-26T01:32:01.556Z,977.64
2022-12-26T01:33:01.492Z,977.64
2022-12-26T01:34:01.480Z,977.65
2022-12-26T01:35:01.457Z,977.67
2022-12-26T01:36:01.464Z,977.76
2022-12-26T01:37:01.435Z,977.72
2022-12-26T01:38:01.415Z,977.65
2022-12-26T01:39:01.409Z,977.70
2022-12-26T01:40:01.397Z,977.67
2022-12-26T01:41:01.427Z,977.61
2022-12-26T01:42:01.384Z,977.71
2022-12-26T01:43:01.351Z,977.74
2022-12-26T01:44:01.409Z,977.71
2022-12-26T01:45:01.321Z,977.74
2022-12-26T01:46:01.412Z,977.74
2022-12-26T01:47:01.355Z,977.77
2022-12-26T01:48:01.589Z,977.79
2022-12-26T01:49:01.275Z,977.86
2022-12-26T01:50:01.266Z,977.85
2022-12-26T01:51:01.258Z,977.77
2022-12-26T01:52:01.250Z,977.84
2022-12-26T01:53:01.260Z,977.81
2022-12-26T01:54:37.623Z,977.82
2022-12-26T01:55:02.222Z,977.85
2022-12-26T01:56:01.191Z,977.87
2022-12-26T01:57:01.163Z,977.85
2022-12-26T01:58:01.180Z,977.83
2022-12-26T01:59:01.136Z,977.93
2022-12-26T02:00:01.125Z,977.88
2022-12-26T02:01:01.226Z,977.91
2022-12-26T02:02:01.333Z,977.96
2022-12-26T02:03:01.100Z,977.85
2022-12-26T02:04:01.075Z,977.81
2022-12-26T02:05:01.054Z,977.80
2022-12-26T02:06:01.039Z,977.75
2022-12-26T02:07:01.027Z,977.69
2022-12-26T02:08:01.008Z,977.71
2022-12-26T02:09:00.997Z,977.65
2022-12-26T02:10:01.025Z,977.65
2022-12-26T02:11:00.972Z,977.66
2022-12-26T02:12:35.105Z,977.69
2022-12-26T02:13:01.971Z,977.71
2022-12-26T02:14:00.954Z,977.67
2022-12-26T02:15:01.000Z,977.70
2022-12-26T02:16:00.905Z,977.66
2022-12-26T02:17:00.945Z,977.70
2022-12-26T02:18:00.882Z,977.62
2022-12-26T02:19:00.872Z,977.62
2022-12-26T02:20:00.872Z,977.59
2022-12-26T02:21:00.838Z,977.62
2022-12-26T02:22:00.823Z,977.65
2022-12-26T02:23:00.821Z,977.62
2022-12-26T02:24:00.799Z,977.63
2022-12-26T02:25:00.782Z,977.66
2022-12-26T02:26:00.768Z,977.70
2022-12-26T02:27:00.771Z,977.67
2022-12-26T02:28:00.744Z,977.75
2022-12-26T02:29:00.732Z,977.67
2022-12-26T02:30:00.737Z,977.72
2022-12-26T02:31:00.702Z,977.68
2022-12-26T02:32:00.842Z,977.74
2022-12-26T02:33:00.672Z,977.72
2022-12-26T02:34:00.656Z,977.79
2022-12-26T02:35:00.641Z,977.80
2022-12-26T02:36:00.625Z,977.79
2022-12-26T02:37:00.617Z,977.92
2022-12-26T02:38:00.607Z,977.91
2022-12-26T02:39:00.584Z,977.84
2022-12-26T02:40:00.578Z,977.88
2022-12-26T02:41:00.564Z,977.87
2022-12-26T02:42:00.579Z,977.86
2022-12-26T02:43:00.544Z,977.85
2022-12-26T02:44:00.513Z,977.83
2022-12-26T02:45:00.509Z,977.81
2022-12-26T02:46:00.597Z,977.78
2022-12-26T02:47:00.477Z,977.84
2022-12-26T02:48:00.477Z,977.82
2022-12-26T02:49:00.451Z,977.91
2022-12-26T02:50:00.433Z,977.91
2022-12-26T02:51:00.434Z,977.93
2022-12-26T02:52:00.412Z,977.94
2022-12-26T02:53:00.426Z,977.99
2022-12-26T02:54:00.389Z,977.91
2022-12-26T02:55:00.416Z,977.88
2022-12-26T02:56:00.360Z,977.89
2022-12-26T02:57:00.350Z,977.92
2022-12-26T02:58:00.342Z,977.85
2022-12-26T02:59:00.327Z,977.90
2022-12-26T03:00:00.311Z,977.95
2022-12-26T03:01:00.351Z,977.95
2022-12-26T03:02:00.531Z,977.94
2022-12-26T03:03:00.323Z,977.96
2022-12-26T03:04:00.248Z,977.96
2022-12-26T03:05:00.257Z,977.92
2022-12-26T03:06:00.223Z,977.87
2022-12-26T03:07:00.211Z,977.85
2022-12-26T03:08:00.196Z,977.92
2022-12-26T03:09:00.180Z,977.90
2022-12-26T03:10:00.220Z,977.90
2022-12-26T03:11:00.165Z,977.83
2022-12-26T03:12:00.160Z,977.83
2022-12-26T03:13:00.122Z,977.71
2022-12-26T03:14:00.116Z,977.73
2022-12-26T03:15:00.122Z,977.77
2022-12-26T03:16:00.099Z,977.74
2022-12-26T03:17:00.152Z,977.71
2022-12-26T03:18:00.101Z,977.75
2022-12-26T03:19:00.754Z,977.80
2022-12-26T03:20:00.158Z,977.79
2022-12-26T03:21:00.015Z,977.78
2022-12-26T03:22:00.038Z,977.74
2022-12-26T03:23:00.058Z,977.76
2022-12-26T03:23:59.987Z,977.73
2022-12-26T03:25:00.024Z,977.72
2022-12-26T03:26:00.031Z,977.74
2022-12-26T03:26:59.960Z,977.65
2022-12-26T03:27:59.931Z,977.74
2022-12-26T03:28:59.912Z,977.70
2022-12-26T03:29:59.935Z,977.70
2022-12-26T03:31:00.013Z,977.51
2022-12-26T03:31:59.883Z,977.51
2022-12-26T03:32:59.858Z,977.47
2022-12-26T03:33:59.864Z,977.47
2022-12-26T03:34:59.838Z,977.49
2022-12-26T03:35:59.820Z,977.47
2022-12-26T03:36:59.801Z,977.44
2022-12-26T03:37:59.789Z,977.41
2022-12-26T03:38:59.776Z,977.41
2022-12-26T03:39:59.763Z,977.41
2022-12-26T03:40:59.753Z,977.38
2022-12-26T03:41:59.744Z,977.40
2022-12-26T03:42:59.718Z,977.44
2022-12-26T03:43:59.705Z,977.42
2022-12-26T03:44:59.689Z,977.39
2022-12-26T03:45:59.742Z,977.40
2022-12-26T03:46:59.683Z,977.46
2022-12-26T03:47:59.651Z,977.46
2022-12-26T03:48:59.898Z,977.48
2022-12-26T03:49:59.705Z,977.47
2022-12-26T03:50:59.621Z,977.47
2022-12-26T03:51:59.594Z,977.51
2022-12-26T03:52:59.588Z,977.50
2022-12-26T03:53:59.569Z,977.52
2022-12-26T03:54:59.556Z,977.51
2022-12-26T03:55:59.545Z,977.49
2022-12-26T03:56:59.535Z,977.50
2022-12-26T03:57:59.524Z,977.58
2022-12-26T03:58:59.503Z,977.57
2022-12-26T03:59:59.549Z,977.59
2022-12-26T04:00:59.517Z,977.58
2022-12-26T04:01:59.630Z,977.58
2022-12-26T04:02:59.450Z,977.60
2022-12-26T04:03:59.509Z,977.63
2022-12-26T04:04:59.426Z,977.64
2022-12-26T04:05:59.430Z,977.63
2022-12-26T04:06:59.389Z,977.63
2022-12-26T04:07:59.382Z,977.72
2022-12-26T04:08:59.366Z,977.69
2022-12-26T04:09:59.358Z,977.65
2022-12-26T04:10:59.344Z,977.66
2022-12-26T04:11:59.324Z,977.70
2022-12-26T04:12:59.341Z,977.67
2022-12-26T04:13:59.297Z,977.65
2022-12-26T04:14:59.312Z,977.57
2022-12-26T04:15:59.334Z,977.67
2022-12-26T04:16:59.260Z,977.73
2022-12-26T04:17:59.247Z,977.59
2022-12-26T04:18:59.226Z,977.68
2022-12-26T04:19:59.215Z,977.68
2022-12-26T04:20:59.198Z,977.72
2022-12-26T04:21:59.217Z,977.73
2022-12-26T04:22:59.187Z,977.74
2022-12-26T04:23:59.168Z,977.74
2022-12-26T04:24:59.147Z,977.76
2022-12-26T04:25:59.156Z,977.70
2022-12-26T04:26:59.135Z,977.73
2022-12-26T04:27:59.117Z,977.73
2022-12-26T04:28:59.106Z,977.78
2022-12-26T04:29:59.093Z,977.67
2022-12-26T04:30:59.100Z,977.61
2022-12-26T04:31:59.054Z,977.59
2022-12-26T04:32:59.049Z,977.65
2022-12-26T04:33:59.021Z,977.74
2022-12-26T04:34:59.005Z,977.75
2022-12-26T04:35:58.999Z,977.72
2022-12-26T04:36:58.983Z,977.78
2022-12-26T04:37:58.997Z,977.81
2022-12-26T04:38:58.960Z,977.76
2022-12-26T04:39:58.963Z,977.82
2022-12-26T04:40:58.933Z,977.71
2022-12-26T04:41:58.931Z,977.69
2022-12-26T04:42:58.932Z,977.68
2022-12-26T04:43:58.895Z,977.74
2022-12-26T04:44:58.872Z,977.67
2022-12-26T04:45:58.941Z,977.70
2022-12-26T04:46:58.931Z,977.74
2022-12-26T04:47:58.833Z,977.69
2022-12-26T04:48:58.824Z,977.69
2022-12-26T04:49:58.810Z,977.67
2022-12-26T04:50:58.796Z,977.58
2022-12-26T04:51:58.786Z,977.63
2022-12-26T04:52:58.962Z,977.65
2022-12-26T04:53:58.983Z,977.72
2022-12-26T04:54:58.742Z,977.62
2022-12-26T04:55:58.727Z,977.70
2022-12-26T04:56:58.713Z,977.71
2022-12-26T04:57:58.703Z,977.67
2022-12-26T04:58:58.681Z,977.73
2022-12-26T04:59:58.672Z,977.70
2022-12-26T05:00:58.713Z,977.75
2022-12-26T05:01:58.832Z,977.72
2022-12-26T05:02:58.789Z,977.68
2022-12-26T05:03:58.671Z,977.72
2022-12-26T05:04:58.612Z,977.67
2022-12-26T05:05:58.595Z,977.69
2022-12-26T05:06:58.583Z,977.73
2022-12-26T05:07:58.566Z,977.71
2022-12-26T05:08:58.549Z,977.72
2022-12-26T05:09:58.585Z,977.71
2022-12-26T05:10:58.524Z,977.66
2022-12-26T05:11:58.515Z,977.67
2022-12-26T05:12:58.491Z,977.59
2022-12-26T05:13:58.490Z,977.56
2022-12-26T05:14:58.498Z,977.55
2022-12-26T05:15:58.547Z,977.51
2022-12-26T05:16:58.439Z,977.43
2022-12-26T05:17:58.436Z,977.38
2022-12-26T05:18:58.424Z,977.37
2022-12-26T05:19:58.410Z,977.36
2022-12-26T05:20:58.394Z,977.38
2022-12-26T05:21:58.382Z,977.41
2022-12-26T05:22:58.381Z,977.38
2022-12-26T05:23:58.378Z,977.33
2022-12-26T05:24:58.344Z,977.35
2022-12-26T05:25:58.359Z,977.31
2022-12-26T05:26:58.307Z,977.30
2022-12-26T05:27:58.300Z,977.32
2022-12-26T05:28:58.296Z,977.42
2022-12-26T05:29:58.277Z,977.39
2022-12-26T05:30:58.321Z,977.42
2022-12-26T05:31:58.347Z,977.35
2022-12-26T05:32:58.230Z,977.35
2022-12-26T05:33:58.226Z,977.49
2022-12-26T05:34:58.208Z,977.50
2022-12-26T05:35:58.198Z,977.48
2022-12-26T05:36:58.181Z,977.45
2022-12-26T05:37:58.170Z,977.47
2022-12-26T05:38:58.154Z,977.55
2022-12-26T05:39:58.145Z,977.55
2022-12-26T05:40:58.127Z,977.47
2022-12-26T05:41:58.133Z,977.41
2022-12-26T05:42:58.097Z,977.49
2022-12-26T05:43:58.079Z,977.47
2022-12-26T05:44:58.083Z,977.47
2022-12-26T05:45:58.061Z,977.50
2022-12-26T05:46:58.109Z,977.51
2022-12-26T05:47:58.034Z,977.50
2022-12-26T05:48:58.027Z,977.59
2022-12-26T05:49:58.015Z,977.53
2022-12-26T05:50:57.999Z,977.57
2022-12-26T05:51:57.977Z,977.59
2022-12-26T05:52:58.004Z,977.57
2022-12-26T05:53:58.018Z,977.49
2022-12-26T05:54:57.936Z,977.47
2022-12-26T05:55:57.939Z,977.59
2022-12-26T05:56:57.920Z,977.60
2022-12-26T05:57:57.926Z,977.58
2022-12-26T05:58:57.897Z,977.63
2022-12-26T05:59:57.877Z,977.69
2022-12-26T06:00:57.855Z,977.70
2022-12-26T06:01:57.937Z,977.72
2022-12-26T06:02:57.976Z,977.68
2022-12-26T06:03:57.977Z,977.72
2022-12-26T06:04:57.807Z,977.66
2022-12-26T06:05:57.800Z,977.69
2022-12-26T06:06:57.782Z,977.70
2022-12-26T06:07:57.765Z,977.67
2022-12-26T06:08:57.755Z,977.64
2022-12-26T06:09:57.746Z,977.60
2022-12-26T06:10:57.731Z,977.56
2022-12-26T06:11:57.744Z,977.60
2022-12-26T06:12:57.694Z,977.56
2022-12-26T06:13:57.710Z,977.63
2022-12-26T06:14:57.676Z,977.57
2022-12-26T06:15:57.686Z,977.53
2022-12-26T06:16:57.645Z,977.53
2022-12-26T06:17:57.645Z,977.63
2022-12-26T06:18:57.638Z,977.61
2022-12-26T06:19:57.606Z,977.59
2022-12-26T06:20:57.588Z,977.62
2022-12-26T06:21:57.586Z,977.61
2022-12-26T06:22:57.572Z,977.54
2022-12-26T06:23:57.551Z,977.61
2022-12-26T06:24:57.533Z,977.60
2022-12-26T06:25:57.524Z,977.62
2022-12-26T06:26:57.511Z,977.63
2022-12-26T06:27:57.502Z,977.62
2022-12-26T06:28:57.485Z,977.67
2022-12-26T06:29:57.494Z,977.63
2022-12-26T06:30:57.522Z,977.61
2022-12-26T06:31:57.546Z,977.63
2022-12-26T06:32:57.441Z,977.61
2022-12-26T06:33:57.430Z,977.68
2022-12-26T06:34:57.410Z,977.70
2022-12-26T06:35:57.401Z,977.58
2022-12-26T06:36:57.378Z,977.58
2022-12-26T06:37:57.379Z,977.65
2022-12-26T06:38:57.360Z,977.68
2022-12-26T06:39:57.343Z,977.63
2022-12-26T06:40:57.323Z,977.60
2022-12-26T06:41:57.342Z,977.58
2022-12-26T06:42:57.299Z,977.54
2022-12-26T06:43:57.284Z,977.58
2022-12-26T06:44:57.273Z,977.54
2022-12-26T06:45:57.284Z,977.57
2022-12-26T06:46:57.338Z,977.58
2022-12-26T06:47:57.237Z,977.59
2022-12-26T06:48:57.226Z,977.65
2022-12-26T06:49:57.218Z,977.62
2022-12-26T06:50:57.247Z,977.61
2022-12-26T06:51:57.193Z,977.58
2022-12-26T06:52:57.172Z,977.55
2022-12-26T06:53:57.164Z,977.52
2022-12-26T06:54:57.143Z,977.50
2022-12-26T06:55:57.129Z,977.55
2022-12-26T06:56:57.119Z,977.46
2022-12-26T06:57:57.101Z,977.57
2022-12-26T06:58:57.085Z,977.62
2022-12-26T06:59:57.068Z,977.60
2022-12-26T07:00:57.145Z,977.58
2022-12-26T07:01:57.184Z,977.51
2022-12-26T07:02:57.110Z,977.54
2022-12-26T07:03:57.384Z,977.53
2022-12-26T07:04:57.011Z,977.57
2022-12-26T07:05:56.996Z,977.55
2022-12-26T07:06:56.983Z,977.53
2022-12-26T07:07:56.969Z,977.53
2022-12-26T07:08:56.955Z,977.61
2022-12-26T07:09:56.936Z,977.53
2022-12-26T07:10:56.925Z,977.51
2022-12-26T07:11:56.910Z,977.55
2022-12-26T07:12:56.899Z,977.54
2022-12-26T07:13:56.891Z,977.52
2022-12-26T07:15:01.587Z,977.58
2022-12-26T07:15:56.890Z,977.65
2022-12-26T07:16:56.907Z,977.58
2022-12-26T07:17:56.861Z,977.57
2022-12-26T07:18:56.826Z,977.51
2022-12-26T07:19:56.806Z,977.49
2022-12-26T07:20:56.800Z,977.57
2022-12-26T07:21:56.779Z,977.48
2022-12-26T07:22:56.774Z,977.44
2022-12-26T07:23:56.750Z,977.52
2022-12-26T07:24:56.741Z,977.51
2022-12-26T07:25:56.726Z,977.51
2022-12-26T07:26:56.727Z,977.57
2022-12-26T07:27:56.707Z,977.61
2022-12-26T07:28:56.690Z,977.60
2022-12-26T07:29:56.677Z,977.57
2022-12-26T07:30:56.662Z,977.50
2022-12-26T07:31:56.731Z,977.50
2022-12-26T07:32:56.635Z,977.48
2022-12-26T07:33:56.654Z,977.52
2022-12-26T07:34:56.605Z,977.58
2022-12-26T07:35:56.594Z,977.56
2022-12-26T07:36:56.581Z,977.61
2022-12-26T07:37:56.562Z,977.63
2022-12-26T07:38:56.555Z,977.68
2022-12-26T07:39:59.217Z,977.73
2022-12-26T07:40:56.530Z,977.72
2022-12-26T07:41:56.513Z,977.69
2022-12-26T07:42:56.501Z,977.62
2022-12-26T07:43:56.487Z,977.68
2022-12-26T07:44:56.477Z,977.65
2022-12-26T07:45:56.517Z,977.65
2022-12-26T07:46:56.465Z,977.64
2022-12-26T07:47:56.439Z,977.68
2022-12-26T07:48:56.420Z,977.68
2022-12-26T07:49:56.459Z,977.71
2022-12-26T07:50:56.399Z,977.73
2022-12-26T07:51:56.396Z,977.72
2022-12-26T07:52:56.376Z,977.69
2022-12-26T07:53:56.364Z,977.66
2022-12-26T07:54:56.346Z,977.69
2022-12-26T07:55:56.341Z,977.71
2022-12-26T07:57:15.147Z,977.70
2022-12-26T07:57:57.320Z,977.73
2022-12-26T07:58:56.290Z,977.76
2022-12-26T07:59:56.274Z,977.84
2022-12-26T08:00:56.360Z,977.87
2022-12-26T08:01:56.581Z,977.84
2022-12-26T08:03:01.141Z,977.84
2022-12-26T08:03:57.389Z,977.88
2022-12-26T08:04:56.209Z,977.87
2022-12-26T08:05:56.219Z,977.81
2022-12-26T08:06:56.213Z,977.90
2022-12-26T08:07:56.247Z,977.90
2022-12-26T08:08:56.158Z,977.81
2022-12-26T08:09:56.244Z,977.91
2022-12-26T08:10:56.128Z,977.91
2022-12-26T08:11:56.117Z,977.87
2022-12-26T08:12:56.118Z,977.90
2022-12-26T08:13:56.096Z,977.90
2022-12-26T08:14:56.074Z,977.98
2022-12-26T08:15:56.095Z,977.97
2022-12-26T08:16:56.124Z,977.98
2022-12-26T08:17:56.030Z,977.92
2022-12-26T08:18:56.023Z,977.93
2022-12-26T08:19:56.007Z,978.06
2022-12-26T08:20:56.000Z,978.00
2022-12-26T08:21:56.007Z,978.03
2022-12-26T08:23:55.955Z,978.01
2022-12-26T08:24:55.943Z,978.00
2022-12-26T08:25:55.929Z,977.94
2022-12-26T08:26:55.918Z,977.89
2022-12-26T08:27:55.903Z,977.95
2022-12-26T08:28:55.882Z,977.97
2022-12-26T08:29:55.873Z,977.95
2022-12-26T08:30:55.864Z,977.89
2022-12-26T08:31:55.938Z,977.95
2022-12-26T08:32:55.836Z,977.93
2022-12-26T08:33:55.846Z,977.98
2022-12-26T08:34:55.818Z,978.03
2022-12-26T08:35:55.791Z,977.96
2022-12-26T08:36:55.788Z,978.06
2022-12-26T08:37:55.787Z,978.19
2022-12-26T08:38:55.749Z,978.19
2022-12-26T08:39:55.738Z,978.21
2022-12-26T08:40:55.727Z,978.18
2022-12-26T08:41:55.709Z,978.27
2022-12-26T08:43:12.229Z,978.18
2022-12-26T08:44:26.279Z,978.30
2022-12-26T08:44:56.698Z,978.30
2022-12-26T08:45:55.697Z,978.35
2022-12-26T08:46:55.648Z,978.40
2022-12-26T08:47:55.637Z,978.41
2022-12-26T08:48:55.622Z,978.44
2022-12-26T08:49:55.609Z,978.42
2022-12-26T08:50:55.598Z,978.51
2022-12-26T08:51:55.582Z,978.51
2022-12-26T08:52:55.571Z,978.54
2022-12-26T08:53:55.565Z,978.59
2022-12-26T08:54:55.539Z,978.57
2022-12-26T08:55:55.529Z,978.61
2022-12-26T08:56:55.511Z,978.64
2022-12-26T08:57:55.501Z,978.63
2022-12-26T08:58:55.481Z,978.63
2022-12-26T08:59:55.476Z,978.70
2022-12-26T09:00:55.790Z,978.71
2022-12-26T09:01:55.550Z,978.75
2022-12-26T09:02:55.554Z,978.71
2022-12-26T09:03:55.420Z,978.72
2022-12-26T09:04:55.406Z,978.71
2022-12-26T09:05:55.740Z,978.81
2022-12-26T09:06:55.384Z,978.77
2022-12-26T09:07:55.370Z,978.73
2022-12-26T09:08:55.357Z,978.76
2022-12-26T09:09:55.361Z,978.74
2022-12-26T09:10:55.341Z,978.77
2022-12-26T09:11:55.322Z,978.71
2022-12-26T09:12:55.306Z,978.77
2022-12-26T09:13:55.278Z,978.75
2022-12-26T09:14:55.273Z,978.75
2022-12-26T09:15:55.253Z,978.77
2022-12-26T09:16:55.309Z,978.79
2022-12-26T09:17:55.225Z,978.68
2022-12-26T09:18:55.245Z,978.69
2022-12-26T09:19:55.200Z,978.68
2022-12-26T09:20:55.192Z,978.77
2022-12-26T09:21:55.182Z,978.80
2022-12-26T09:22:55.168Z,978.75
2022-12-26T09:23:55.153Z,978.80
2022-12-26T09:24:55.139Z,978.82
2022-12-26T09:25:55.148Z,978.85
2022-12-26T09:26:55.112Z,978.90
2022-12-26T09:27:59.032Z,978.88
2022-12-26T09:28:55.082Z,978.96
2022-12-26T09:29:55.070Z,979.00
2022-12-26T09:30:55.155Z,978.97
2022-12-26T09:31:55.048Z,979.00
2022-12-26T09:32:55.027Z,979.12
2022-12-26T09:33:55.017Z,979.20
2022-12-26T09:34:55.012Z,979.13
2022-12-26T09:35:59.809Z,979.11
2022-12-26T09:36:56.001Z,979.17
2022-12-26T09:37:54.961Z,979.18
2022-12-26T09:38:54.953Z,979.07
2022-12-26T09:39:54.941Z,979.08
2022-12-26T09:40:54.934Z,979.15
2022-12-26T09:41:54.926Z,979.21
2022-12-26T09:42:54.894Z,979.23
2022-12-26T09:43:54.882Z,979.37
2022-12-26T09:44:54.871Z,979.28
2022-12-26T09:45:54.891Z,979.28
2022-12-26T09:46:54.846Z,979.29
2022-12-26T09:47:54.849Z,979.41
2022-12-26T09:48:54.815Z,979.34
2022-12-26T09:49:54.812Z,979.38
2022-12-26T09:50:54.799Z,979.31
2022-12-26T09:51:54.776Z,979.36
2022-12-26T09:52:54.761Z,979.35
2022-12-26T09:53:54.756Z,979.43
2022-12-26T09:54:54.742Z,979.37
2022-12-26T09:55:54.728Z,979.42
2022-12-26T09:57:02.992Z,979.36
2022-12-26T09:57:55.746Z,979.38
2022-12-26T09:58:54.678Z,979.37
2022-12-26T09:59:54.665Z,979.41
2022-12-26T10:00:54.670Z,979.40
2022-12-26T10:01:54.704Z,979.41
2022-12-26T10:02:54.645Z,979.41
2022-12-26T10:03:54.609Z,979.45
2022-12-26T10:04:54.708Z,979.40
2022-12-26T10:05:54.590Z,979.42
2022-12-26T10:06:54.580Z,979.45
2022-12-26T10:07:54.559Z,979.41
2022-12-26T10:08:54.551Z,979.41
2022-12-26T10:09:54.543Z,979.52
2022-12-26T10:10:54.727Z,979.53
2022-12-26T10:11:54.511Z,979.54
2022-12-26T10:12:54.493Z,979.53
2022-12-26T10:13:54.506Z,979.49
2022-12-26T10:14:54.486Z,979.54
2022-12-26T10:15:54.476Z,979.61
2022-12-26T10:16:54.459Z,979.58
2022-12-26T10:17:54.425Z,979.60
2022-12-26T10:18:54.429Z,979.58
2022-12-26T10:19:54.400Z,979.61
2022-12-26T10:20:54.409Z,979.61
2022-12-26T10:21:54.385Z,979.63
2022-12-26T10:22:54.363Z,979.60
2022-12-26T10:23:54.355Z,979.63
2022-12-26T10:24:54.333Z,979.62
2022-12-26T10:25:54.328Z,979.65
2022-12-26T10:26:54.311Z,979.71
2022-12-26T10:27:54.294Z,979.79
2022-12-26T10:28:54.278Z,979.74
2022-12-26T10:29:54.292Z,979.71
2022-12-26T10:30:54.275Z,979.73
2022-12-26T10:31:54.243Z,979.70
2022-12-26T10:32:54.231Z,979.77
2022-12-26T10:33:54.212Z,979.72
2022-12-26T10:34:54.204Z,979.82
2022-12-26T10:35:54.181Z,979.79
2022-12-26T10:36:54.184Z,979.79
2022-12-26T10:37:54.167Z,979.85
2022-12-26T10:38:54.151Z,979.93
2022-12-26T10:39:54.134Z,979.95
2022-12-26T10:40:54.125Z,980.01
2022-12-26T10:41:54.114Z,980.09
2022-12-26T10:42:54.103Z,980.09
2022-12-26T10:43:54.078Z,980.13
2022-12-26T10:44:54.077Z,980.13
2022-12-26T10:45:54.072Z,980.10
2022-12-26T10:46:54.039Z,980.09
2022-12-26T10:47:54.028Z,980.18
2022-12-26T10:48:54.017Z,980.13
2022-12-26T10:49:53.998Z,980.26
2022-12-26T10:50:53.992Z,980.24
2022-12-26T10:51:53.981Z,980.23
2022-12-26T10:52:53.991Z,980.26
2022-12-26T10:53:53.971Z,980.35
2022-12-26T10:55:28.232Z,980.30
2022-12-26T10:55:54.946Z,980.30
2022-12-26T10:56:53.910Z,980.36
2022-12-26T10:57:53.889Z,980.40
2022-12-26T10:58:53.877Z,980.41
2022-12-26T10:59:53.897Z,980.35
2022-12-26T11:00:53.860Z,980.25
2022-12-26T11:01:53.990Z,980.23
2022-12-26T11:02:53.984Z,980.33
2022-12-26T11:03:53.885Z,980.32
2022-12-26T11:05:13.615Z,980.32
2022-12-26T11:06:10.396Z,980.32
2022-12-26T11:06:54.801Z,980.27
2022-12-26T11:07:53.764Z,980.22
2022-12-26T11:08:53.748Z,980.28
2022-12-26T11:09:53.735Z,980.25
2022-12-26T11:10:53.715Z,980.22
2022-12-26T11:11:53.705Z,980.22
2022-12-26T11:12:53.694Z,980.18
2022-12-26T11:14:00.964Z,980.22
2022-12-26T11:14:54.698Z,980.13
2022-12-26T11:15:53.831Z,980.14
2022-12-26T11:16:53.635Z,980.08
2022-12-26T11:17:53.655Z,980.10
2022-12-26T11:18:53.615Z,980.10
2022-12-26T11:19:53.603Z,980.09
2022-12-26T11:20:53.584Z,980.09
2022-12-26T11:21:53.575Z,980.10
2022-12-26T11:22:53.563Z,979.90
2022-12-26T11:23:53.552Z,979.94
2022-12-26T11:24:53.538Z,979.90
2022-12-26T11:25:53.520Z,979.83
2022-12-26T11:26:53.502Z,979.94
2022-12-26T11:27:53.496Z,979.79
2022-12-26T11:28:53.484Z,979.73
2022-12-26T11:29:53.472Z,979.72
2022-12-26T11:30:53.492Z,979.77
2022-12-26T11:31:53.446Z,979.84
2022-12-26T11:32:53.428Z,979.86
2022-12-26T11:33:53.432Z,979.88
2022-12-26T11:34:53.398Z,979.91
2022-12-26T11:35:53.396Z,980.03
2022-12-26T11:36:53.370Z,979.95
2022-12-26T11:37:53.373Z,980.01
2022-12-26T11:38:53.352Z,980.02
2022-12-26T11:39:53.343Z,980.02
2022-12-26T11:40:53.320Z,980.03
2022-12-26T11:41:53.312Z,979.98
2022-12-26T11:42:53.298Z,979.96
2022-12-26T11:43:53.289Z,980.03
2022-12-26T11:44:53.278Z,979.98
2022-12-26T11:45:53.251Z,980.07
2022-12-26T11:46:53.300Z,980.04
2022-12-26T11:47:53.232Z,980.03
2022-12-26T11:48:53.215Z,979.92
2022-12-26T11:49:53.229Z,979.91
2022-12-26T11:50:53.187Z,979.83
2022-12-26T11:51:58.768Z,979.75
2022-12-26T11:52:54.182Z,979.81
2022-12-26T11:53:53.156Z,979.89
2022-12-26T11:54:53.136Z,979.78
2022-12-26T11:55:53.121Z,979.76
2022-12-26T11:56:53.106Z,979.76
2022-12-26T11:57:56.935Z,979.76
2022-12-26T11:58:53.084Z,979.81
2022-12-26T11:59:53.082Z,979.80
2022-12-26T12:00:53.058Z,979.73
2022-12-26T12:01:53.152Z,979.71
2022-12-26T12:02:53.100Z,979.70
2022-12-26T12:03:53.049Z,979.67
2022-12-26T12:04:52.998Z,979.72
2022-12-26T12:05:53.014Z,979.74
2022-12-26T12:06:52.979Z,979.75
2022-12-26T12:07:52.954Z,979.72
2022-12-26T12:08:52.945Z,979.73
2022-12-26T12:09:52.925Z,979.73
2022-12-26T12:10:52.917Z,979.74
2022-12-26T12:11:52.902Z,979.77
2022-12-26T12:12:52.884Z,979.79
2022-12-26T12:13:53.374Z,979.89
2022-12-26T12:14:54.973Z,979.94
2022-12-26T12:15:52.858Z,979.93
2022-12-26T12:16:52.896Z,980.01
2022-12-26T12:17:52.839Z,980.03
2022-12-26T12:18:52.809Z,980.03
2022-12-26T12:19:52.793Z,979.97
2022-12-26T12:20:52.773Z,980.01
2022-12-26T12:21:52.792Z,979.97
2022-12-26T12:22:52.784Z,979.92
2022-12-26T12:23:52.740Z,979.80
2022-12-26T12:24:52.725Z,979.73
2022-12-26T12:25:52.713Z,979.74
2022-12-26T12:26:56.665Z,979.68
2022-12-26T12:27:53.703Z,979.65
2022-12-26T12:28:52.674Z,979.60